Terminal Aerodrome Forecast
Issued by NWS Pittsburgh, PA

Home | Current Version | Previous Version | Text Only | Print | Product List | Glossary On
Versions: 1 2 3 4 5 6 7 8 9 10 11 12 13 14 15 16 17 18 19 20 21 22 23 24 25 26 27 28 29 30 31
000
FTUS41 KPBZ 011100
TAFPIT
TAF
KPIT 011139Z 0112/0218 02008KT 6SM -DZ BR BKN007 OVC025
     FM011330 36010KT P6SM VCSH SCT007 OVC015
     FM011700 35012G22KT P6SM VCSH OVC025
     FM020200 35011KT P6SM BKN025
     FM021400 33005KT P6SM SCT250=

USA.gov is the U.S. government's official web portal to all federal, state and local government web resources and services.